Time;durP1;ratioP1;P1;durP2;ratioP2;P2;SDS_P1;SDS_P2;PMS_P1;PMS_P2;Temp;Humidity;BMP_temperature;BMP_pressure;BME280_temperature;BME280_humidity;BME280_pressure;Samples;Min_cycle;Max_cycle;Signal;HPM_P1;HPM_P2
2022/05/08 00:02:13;;;;;;;17.27;8.53;;;17.20;71.60;;;;;;5012036;28;20214;-93
2022/05/08 00:04:42;;;;;;;17.50;7.77;;;17.10;71.80;;;;;;5010139;28;20638;-93
2022/05/08 00:07:09;;;;;;;16.33;8.53;;;17.10;71.80;;;;;;5004175;28;20236;-93
2022/05/08 00:09:41;;;;;;;25.67;10.33;;;17.10;71.80;;;;;;5009406;28;20222;-92
2022/05/08 00:12:12;;;;;;;20.60;8.80;;;17.10;72.50;;;;;;5009714;28;20241;-95
2022/05/08 00:14:41;;;;;;;21.57;9.57;;;17.00;72.30;;;;;;5012064;28;20278;-95
2022/05/08 00:17:34;;;;;;;18.43;8.90;;;17.00;72.30;;;;;;5011885;28;20272;-94
2022/05/08 00:20:04;;;;;;;22.40;8.80;;;17.00;72.40;;;;;;5009123;28;20228;-93
2022/05/08 00:22:31;;;;;;;24.00;9.87;;;17.00;72.40;;;;;;5009084;28;20209;-93
2022/05/08 00:25:00;;;;;;;17.70;8.87;;;17.00;72.30;;;;;;5010908;28;20209;-93
2022/05/08 00:27:29;;;;;;;18.53;8.53;;;16.90;72.50;;;;;;5011499;28;20655;-96
2022/05/08 00:30:14;;;;;;;17.90;8.90;;;16.90;72.70;;;;;;5009869;28;20747;-95
2022/05/08 00:35:28;;;;;;;18.33;9.17;;;16.90;72.80;;;;;;5013347;28;20230;-94
2022/05/08 00:37:55;;;;;;;13.40;7.90;;;16.90;72.90;;;;;;5019422;28;20214;-94
2022/05/08 00:40:23;;;;;;;16.47;8.13;;;16.80;72.80;;;;;;5015874;28;20215;-92
2022/05/08 00:42:50;;;;;;;16.10;8.03;;;16.80;73.00;;;;;;5002760;28;20197;-95
2022/05/08 00:45:18;;;;;;;23.77;9.17;;;16.80;73.00;;;;;;5012940;28;20345;-94
2022/05/08 00:47:47;;;;;;;25.43;11.53;;;16.80;73.00;;;;;;5014087;28;20235;-95
2022/05/08 00:50:14;;;;;;;15.73;9.23;;;16.70;73.40;;;;;;5017855;28;20190;-93
2022/05/08 00:52:49;;;;;;;19.80;8.53;;;16.70;73.40;;;;;;5015214;28;20663;-96
2022/05/08 00:55:16;;;;;;;15.73;9.10;;;16.70;73.70;;;;;;5016649;28;20238;-93
2022/05/08 00:57:44;;;;;;;21.97;9.03;;;16.70;73.40;;;;;;5012294;28;20951;-93
2022/05/08 01:00:17;;;;;;;13.97;8.20;;;16.70;73.50;;;;;;5013132;28;20234;-93
2022/05/08 01:02:46;;;;;;;21.80;8.97;;;16.60;73.60;;;;;;5014489;28;21163;-95
2022/05/08 01:05:14;;;;;;;16.67;8.27;;;16.60;73.70;;;;;;5013935;28;20240;-94
2022/05/08 01:07:42;;;;;;;19.20;8.90;;;16.60;73.90;;;;;;5003396;28;20257;-93
2022/05/08 01:10:11;;;;;;;17.80;8.07;;;16.60;73.80;;;;;;5005158;28;20216;-94
2022/05/08 01:12:44;;;;;;;20.87;8.70;;;16.60;74.40;;;;;;5014697;28;20260;-95
2022/05/08 01:15:31;;;;;;;16.60;9.10;;;16.50;74.00;;;;;;5009602;28;20333;-94
2022/05/08 01:17:58;;;;;;;17.53;8.30;;;16.50;74.30;;;;;;5008425;28;20201;-94
2022/05/08 01:20:26;;;;;;;18.57;8.17;;;16.50;74.00;;;;;;5013863;28;20590;-93
2022/05/08 01:22:58;;;;;;;16.33;7.40;;;16.50;74.60;;;;;;5015471;28;20214;-95
2022/05/08 01:25:25;;;;;;;20.07;9.90;;;16.50;74.80;;;;;;5014404;28;20213;-94
2022/05/08 01:27:53;;;;;;;20.17;9.00;;;16.40;74.20;;;;;;5012572;28;20252;-96
2022/05/08 01:30:40;;;;;;;18.77;8.77;;;16.40;74.60;;;;;;5012425;28;20199;-95
2022/05/08 01:33:10;;;;;;;25.57;10.13;;;16.40;75.70;;;;;;5014815;28;20209;-95
2022/05/08 01:35:40;;;;;;;23.33;10.13;;;16.40;74.50;;;;;;5011713;28;20256;-94
2022/05/08 01:38:11;;;;;;;15.17;8.73;;;16.40;75.20;;;;;;5014459;28;20339;-95
2022/05/08 01:40:43;;;;;;;18.83;9.80;;;16.40;75.20;;;;;;5014322;28;20217;-93
2022/05/08 01:43:16;;;;;;;16.67;8.07;;;16.30;75.20;;;;;;5013467;28;20211;-94
2022/05/08 01:45:44;;;;;;;15.03;8.17;;;16.30;75.80;;;;;;5015920;28;21019;-93
2022/05/08 01:51:07;;;;;;;15.13;8.67;;;16.30;75.80;;;;;;4973491;28;20634;-96
2022/05/08 01:53:36;;;;;;;18.50;8.50;;;16.30;75.20;;;;;;5012754;28;20980;-94
2022/05/08 01:56:07;;;;;;;14.63;7.73;;;16.30;75.80;;;;;;5012422;28;20328;-95
2022/05/08 01:58:35;;;;;;;20.67;8.47;;;16.20;75.70;;;;;;5012061;28;20726;-93
2022/05/08 02:01:04;;;;;;;22.13;9.37;;;16.20;75.60;;;;;;5011825;28;20757;-95
2022/05/08 02:03:33;;;;;;;21.90;9.77;;;16.20;75.90;;;;;;5012077;28;20612;-95
2022/05/08 02:06:13;;;;;;;22.80;10.07;;;16.20;76.20;;;;;;5011177;28;20206;-94
2022/05/08 02:09:07;;;;;;;24.27;10.30;;;16.20;77.00;;;;;;5009148;28;20193;-95
2022/05/08 02:11:35;;;;;;;22.13;9.97;;;16.20;77.80;;;;;;4989569;28;20242;-96
2022/05/08 02:14:02;;;;;;;22.00;10.33;;;16.10;77.00;;;;;;5008279;28;20660;-95
2022/05/08 02:16:30;;;;;;;20.60;9.97;;;16.10;76.90;;;;;;4995583;28;20601;-94
2022/05/08 02:18:59;;;;;;;22.40;9.70;;;16.10;77.20;;;;;;4999291;28;20202;-94
2022/05/08 02:21:33;;;;;;;24.77;11.83;;;16.00;77.40;;;;;;5003518;28;20198;-95
2022/05/08 02:24:08;;;;;;;25.17;11.23;;;16.00;77.90;;;;;;5000296;28;20229;-93
2022/05/08 02:27:09;;;;;;;21.80;10.13;;;16.00;77.70;;;;;;5014614;28;20255;-95
2022/05/08 02:29:44;;;;;;;25.80;10.73;;;16.00;78.90;;;;;;5006467;28;20197;-93
2022/05/08 02:32:13;;;;;;;21.93;9.70;;;16.00;78.30;;;;;;5013375;28;20204;-92
2022/05/08 02:34:40;;;;;;;28.30;11.20;;;15.90;77.90;;;;;;5013082;28;20219;-94
2022/05/08 02:37:08;;;;;;;23.50;10.80;;;15.90;78.10;;;;;;5010912;28;20267;-94
2022/05/08 02:39:37;;;;;;;16.53;8.90;;;15.90;78.30;;;;;;5013630;28;20236;-94
2022/05/08 02:42:07;;;;;;;21.13;10.90;;;15.90;78.40;;;;;;5012705;28;20859;-94
2022/05/08 02:44:44;;;;;;;18.77;9.33;;;15.90;78.50;;;;;;4999811;28;20206;-94
2022/05/08 02:47:24;;;;;;;30.40;12.27;;;15.90;78.10;;;;;;5010513;28;20229;-92
2022/05/08 02:52:32;;;;;;;21.43;11.07;;;15.90;78.10;;;;;;5069457;22;20232;-94
2022/05/08 02:58:32;;;;;;;28.77;12.37;;;15.80;78.00;;;;;;5027917;28;20226;-93
2022/05/08 03:00:37;;;;;;;22.23;11.20;;;15.80;78.50;;;;;;5028369;28;20203;-92
2022/05/08 03:03:06;;;;;;;22.03;9.97;;;15.80;78.00;;;;;;5037219;28;20264;-93
2022/05/08 03:05:37;;;;;;;22.93;10.50;;;15.80;78.30;;;;;;5032550;28;20270;-93
2022/05/08 03:08:06;;;;;;;20.53;9.30;;;15.70;78.40;;;;;;5029349;28;20261;-95
2022/05/08 03:13:17;;;;;;;16.70;8.10;;;15.70;78.50;;;;;;5013319;28;20201;-95
2022/05/08 03:15:44;;;;;;;13.23;8.57;;;15.70;78.10;;;;;;5024827;28;20299;-94
2022/05/08 03:18:17;;;;;;;19.50;9.33;;;15.70;78.20;;;;;;5033192;28;20209;-93
2022/05/08 03:20:44;;;;;;;20.27;9.10;;;15.70;79.00;;;;;;5031333;28;20267;-93
2022/05/08 03:23:12;;;;;;;25.57;10.27;;;15.60;78.10;;;;;;5032410;28;20203;-93
2022/05/08 03:25:42;;;;;;;20.43;10.00;;;15.60;78.40;;;;;;5031353;28;20716;-93
2022/05/08 03:28:10;;;;;;;14.10;8.23;;;15.60;78.60;;;;;;5034764;28;20684;-94
2022/05/08 03:30:37;;;;;;;21.57;9.80;;;15.60;78.20;;;;;;5034355;28;20205;-92
2022/05/08 03:33:06;;;;;;;14.40;9.17;;;15.60;78.30;;;;;;5033312;28;20336;-93
2022/05/08 03:35:34;;;;;;;18.50;9.20;;;15.60;78.30;;;;;;5030462;28;20237;-95
2022/05/08 03:38:01;;;;;;;15.67;9.30;;;15.50;78.30;;;;;;5013731;28;20202;-94
2022/05/08 03:40:29;;;;;;;19.23;10.17;;;15.50;78.20;;;;;;5023806;28;20245;-92
2022/05/08 03:43:02;;;;;;;19.10;9.17;;;15.60;78.60;;;;;;5031233;28;20258;-94
2022/05/08 03:45:31;;;;;;;18.70;9.50;;;15.50;79.00;;;;;;5030020;28;20209;-94
2022/05/08 03:47:59;;;;;;;19.20;9.33;;;15.50;78.70;;;;;;5032148;28;20190;-92
2022/05/08 03:50:27;;;;;;;19.77;9.37;;;15.50;78.40;;;;;;5030606;28;20259;-93
2022/05/08 03:52:56;;;;;;;12.90;8.20;;;15.50;78.40;;;;;;5031454;28;20228;-94
2022/05/08 03:55:23;;;;;;;21.03;10.47;;;15.40;78.60;;;;;;5029537;28;20229;-93
2022/05/08 03:57:58;;;;;;;17.37;9.30;;;15.40;78.50;;;;;;5032152;28;20204;-93
2022/05/08 04:00:26;;;;;;;22.33;10.30;;;15.40;79.10;;;;;;5031388;28;20208;-93
2022/05/08 04:03:01;;;;;;;18.80;9.70;;;15.40;78.50;;;;;;5022764;28;20210;-92
2022/05/08 04:05:30;;;;;;;18.60;9.97;;;15.40;79.10;;;;;;5023655;28;20201;-92
2022/05/08 04:08:03;;;;;;;17.87;9.67;;;15.40;79.10;;;;;;5031403;28;20205;-91
2022/05/08 04:10:30;;;;;;;18.73;10.77;;;15.40;79.40;;;;;;5031193;28;20298;-93
2022/05/08 04:12:59;;;;;;;18.83;10.27;;;15.30;78.60;;;;;;5031083;28;20273;-93
2022/05/08 04:18:11;;;;;;;21.67;10.47;;;15.30;78.80;;;;;;5031360;28;20204;-92
2022/05/08 04:20:38;;;;;;;19.50;10.50;;;15.30;78.80;;;;;;5029377;28;20301;-92
2022/05/08 04:25:52;;;;;;;19.77;10.57;;;15.30;79.20;;;;;;5028107;28;20270;-92
2022/05/08 04:28:26;;;;;;;19.67;10.83;;;15.30;79.30;;;;;;5031995;28;20219;-93
2022/05/08 04:30:53;;;;;;;20.27;10.97;;;15.30;79.90;;;;;;5029401;28;20200;-92
2022/05/08 04:33:20;;;;;;;20.23;12.07;;;15.20;79.10;;;;;;5028228;28;20210;-93
2022/05/08 04:35:49;;;;;;;18.57;11.00;;;15.20;79.10;;;;;;5028322;28;20274;-93
2022/05/08 04:38:19;;;;;;;19.73;10.70;;;15.20;79.40;;;;;;5031133;28;20223;-95
2022/05/08 04:40:48;;;;;;;24.10;10.93;;;15.20;79.70;;;;;;5030723;28;21057;-93
2022/05/08 04:43:21;;;;;;;17.97;10.80;;;15.20;79.50;;;;;;5031319;28;20213;-94
2022/05/08 04:45:50;;;;;;;18.47;10.03;;;15.20;80.00;;;;;;5030172;28;20205;-96
2022/05/08 04:48:21;;;;;;;19.97;10.23;;;15.20;79.80;;;;;;5031633;28;20213;-93
2022/05/08 04:50:53;;;;;;;23.23;12.33;;;15.20;80.00;;;;;;5028934;28;20213;-94
2022/05/08 04:53:21;;;;;;;17.30;10.47;;;15.20;79.50;;;;;;5031736;28;20304;-93
2022/05/08 04:55:57;;;;;;;20.00;9.93;;;15.10;79.90;;;;;;5029098;28;20684;-95
2022/05/08 04:58:32;;;;;;;22.93;11.50;;;15.10;80.10;;;;;;5031130;28;20212;-95
2022/05/08 05:01:04;;;;;;;22.43;10.80;;;15.10;80.40;;;;;;5030967;28;20282;-93
2022/05/08 05:03:32;;;;;;;23.57;11.07;;;15.10;80.00;;;;;;5028594;28;20223;-92
2022/05/08 05:06:02;;;;;;;25.13;11.00;;;15.10;79.90;;;;;;5034290;28;20212;-92
2022/05/08 05:08:29;;;;;;;19.50;9.90;;;15.10;79.90;;;;;;5028866;28;20222;-93
2022/05/08 05:10:56;;;;;;;21.53;10.23;;;15.00;79.50;;;;;;5031407;28;20213;-94
2022/05/08 05:13:24;;;;;;;20.97;9.33;;;15.00;79.50;;;;;;5031971;28;20203;-94
2022/05/08 05:15:52;;;;;;;13.63;8.97;;;15.00;79.40;;;;;;5024268;28;20233;-92
2022/05/08 05:18:21;;;;;;;17.93;10.30;;;15.00;79.50;;;;;;5029373;28;20247;-93
2022/05/08 05:20:51;;;;;;;21.80;10.10;;;15.00;79.60;;;;;;5030916;28;20711;-93
2022/05/08 05:23:18;;;;;;;26.50;11.30;;;15.00;79.20;;;;;;5032489;28;20221;-93
2022/05/08 05:25:45;;;;;;;17.83;9.53;;;15.00;79.10;;;;;;5033783;28;20890;-91
2022/05/08 05:28:13;;;;;;;23.50;11.10;;;15.00;79.30;;;;;;5030775;28;20203;-94
2022/05/08 05:30:40;;;;;;;17.37;9.00;;;15.00;79.20;;;;;;5032418;28;20197;-96
2022/05/08 05:33:15;;;;;;;17.37;9.30;;;14.90;79.10;;;;;;5032663;28;20212;-94
2022/05/08 05:35:46;;;;;;;17.93;8.67;;;14.90;78.90;;;;;;5035353;28;20212;-94
2022/05/08 05:38:21;;;;;;;20.87;10.43;;;14.90;79.20;;;;;;5033147;28;20225;-91
2022/05/08 05:40:49;;;;;;;17.23;9.20;;;15.00;79.20;;;;;;5034816;28;20216;-92
2022/05/08 05:43:18;;;;;;;18.37;8.67;;;14.90;78.80;;;;;;5034893;28;20287;-93
2022/05/08 05:47:49;;;;;;;14.70;7.97;;;14.90;79.00;;;;;;5034018;28;20254;-91
2022/05/08 05:48:36;;;;;;;20.33;8.30;;;14.90;79.10;;;;;;5035273;28;20200;-94
2022/05/08 05:51:06;;;;;;;15.80;8.87;;;14.90;79.00;;;;;;5032287;28;20208;-92
2022/05/08 05:53:48;;;;;;;21.03;8.73;;;14.90;79.30;;;;;;5036399;28;20278;-93
2022/05/08 05:59:45;;;;;;;18.60;8.93;;;14.90;79.70;;;;;;5034977;28;20201;-94
2022/05/08 06:02:12;;;;;;;34.13;12.30;;;14.90;79.40;;;;;;5027185;28;20240;-94
2022/05/08 06:04:41;;;;;;;20.33;9.33;;;14.90;79.00;;;;;;5030323;28;20204;-94
2022/05/08 06:07:09;;;;;;;13.30;7.57;;;15.00;79.10;;;;;;5032942;28;20205;-94
2022/05/08 06:09:36;;;;;;;17.87;8.80;;;15.00;79.40;;;;;;5035218;28;20212;-93
2022/05/08 06:12:04;;;;;;;19.23;7.97;;;15.00;79.10;;;;;;5034138;28;20215;-95
2022/05/08 06:14:32;;;;;;;16.27;8.33;;;15.10;79.20;;;;;;5035080;28;20285;-93
2022/05/08 06:17:00;;;;;;;18.60;8.50;;;15.10;79.00;;;;;;5034248;28;20323;-94
2022/05/08 06:19:31;;;;;;;25.03;8.67;;;15.10;78.90;;;;;;5035264;28;20210;-94
2022/05/08 06:22:03;;;;;;;18.93;8.20;;;15.20;78.90;;;;;;5032381;28;20207;-95
2022/05/08 06:24:34;;;;;;;13.37;7.63;;;15.20;79.00;;;;;;5036033;28;20947;-93
2022/05/08 06:27:17;;;;;;;17.20;7.90;;;15.20;78.70;;;;;;5034156;28;20613;-93
2022/05/08 06:29:52;;;;;;;21.17;8.40;;;15.30;78.80;;;;;;5031263;28;20235;-94
2022/05/08 06:32:19;;;;;;;16.10;6.90;;;15.30;78.50;;;;;;5035217;28;20716;-93
2022/05/08 06:34:47;;;;;;;14.33;7.57;;;15.40;77.80;;;;;;5034243;28;20208;-96
2022/05/08 06:37:15;;;;;;;22.03;8.53;;;15.40;77.30;;;;;;5032777;28;20224;-94
2022/05/08 06:39:43;;;;;;;17.97;7.33;;;15.40;76.50;;;;;;5035118;28;20213;-95
2022/05/08 06:42:12;;;;;;;19.97;7.97;;;15.50;75.00;;;;;;5034357;28;20537;-94
2022/05/08 06:44:39;;;;;;;14.47;6.90;;;15.50;74.40;;;;;;5032605;28;20235;-94
2022/05/08 06:47:06;;;;;;;27.07;7.80;;;15.60;73.80;;;;;;5032574;28;20212;-93
2022/05/08 06:49:35;;;;;;;16.43;5.50;;;15.60;72.70;;;;;;5019913;28;20201;-95
2022/05/08 06:52:05;;;;;;;14.23;5.60;;;15.60;71.00;;;;;;5033141;28;20220;-94
2022/05/08 06:54:32;;;;;;;15.63;5.70;;;15.60;70.50;;;;;;5035186;28;20303;-95
2022/05/08 06:57:01;;;;;;;17.77;5.13;;;15.60;70.20;;;;;;5025395;28;20220;-96
2022/05/08 07:02:15;;;;;;;18.77;6.00;;;15.70;70.50;;;;;;5027856;28;20213;-91
2022/05/08 07:04:43;;;;;;;16.73;4.57;;;15.70;69.80;;;;;;5035711;28;20637;-94
2022/05/08 07:07:14;;;;;;;11.53;3.87;;;15.80;68.80;;;;;;5030894;28;20220;-92
2022/05/08 07:09:45;;;;;;;19.70;4.43;;;15.80;68.40;;;;;;5015509;28;20261;-92
2022/05/08 07:12:17;;;;;;;11.47;3.67;;;15.80;67.90;;;;;;5030409;28;20197;-95
2022/05/08 07:14:47;;;;;;;16.93;4.97;;;15.90;68.00;;;;;;5032952;28;20262;-93
2022/05/08 07:17:16;;;;;;;20.97;4.70;;;15.90;68.20;;;;;;5033658;28;20237;-92
2022/05/08 07:19:45;;;;;;;19.30;5.50;;;16.00;68.00;;;;;;5033774;28;20248;-94
2022/05/08 07:22:21;;;;;;;15.97;5.33;;;16.00;68.10;;;;;;5033266;28;20565;-94
2022/05/08 07:24:55;;;;;;;14.50;4.87;;;16.10;67.70;;;;;;5033213;28;20228;-94
2022/05/08 07:27:27;;;;;;;16.47;5.50;;;16.20;67.60;;;;;;5033845;28;20617;-95
2022/05/08 07:30:00;;;;;;;13.90;4.83;;;16.20;67.90;;;;;;5030933;28;20202;-93
2022/05/08 07:32:29;;;;;;;17.87;5.33;;;16.20;67.20;;;;;;5031220;28;20204;-93
2022/05/08 07:37:50;;;;;;;10.80;3.93;;;16.40;66.60;;;;;;5024104;28;20320;-93
2022/05/08 07:40:20;;;;;;;17.70;5.57;;;16.40;66.30;;;;;;5037622;28;20544;-96
2022/05/08 07:43:28;;;;;;;;;;;;;;;;;;;;;
2022/05/08 07:45:58;;;;;;;18.53;5.30;;;16.50;66.20;;;;;;5038649;28;20205;-95
2022/05/08 07:48:29;;;;;;;10.67;3.40;;;16.60;66.50;;;;;;5039172;28;20264;-93
2022/05/08 07:50:59;;;;;;;15.73;5.30;;;16.70;66.10;;;;;;5037727;28;20215;-96
2022/05/08 07:53:27;;;;;;;14.83;4.43;;;16.70;66.50;;;;;;5036076;28;20257;-96
2022/05/08 07:59:00;;;;;;;15.03;4.83;;;16.80;65.10;;;;;;5017807;28;20218;-95
2022/05/08 08:01:40;;;;;;;21.10;6.10;;;16.90;64.80;;;;;;5030422;28;20206;-94
2022/05/08 08:04:08;;;;;;;20.67;6.40;;;17.00;63.60;;;;;;5025979;28;20210;-95
2022/05/08 08:06:37;;;;;;;12.77;4.27;;;17.00;62.40;;;;;;5029183;28;20210;-95
2022/05/08 08:09:05;;;;;;;13.57;4.53;;;17.10;62.70;;;;;;5031504;28;20210;-95
2022/05/08 08:11:33;;;;;;;11.53;3.77;;;17.20;62.40;;;;;;5034358;28;20206;-94
2022/05/08 08:14:23;;;;;;;15.17;3.73;;;17.20;62.50;;;;;;5035407;28;20200;-94
2022/05/08 08:16:57;;;;;;;17.63;5.20;;;17.30;62.20;;;;;;5033126;28;20229;-95
2022/05/08 08:19:39;;;;;;;;;;;;;;;;;;;;;
2022/05/08 08:22:10;;;;;;;11.20;3.73;;;17.40;62.00;;;;;;5040961;28;20759;-93
2022/05/08 08:24:41;;;;;;;14.10;4.10;;;17.50;61.10;;;;;;5034995;28;20219;-96
2022/05/08 08:27:16;;;;;;;16.53;5.80;;;17.50;59.40;;;;;;5028510;28;20309;-94
2022/05/08 08:29:48;;;;;;;15.73;5.03;;;17.60;59.40;;;;;;5033764;28;20287;-94
2022/05/08 08:32:15;;;;;;;19.07;5.43;;;17.70;58.70;;;;;;5026697;28;20568;-96
2022/05/08 08:34:43;;;;;;;15.83;4.47;;;17.70;58.70;;;;;;5031831;28;20303;-94
2022/05/08 08:37:12;;;;;;;13.03;4.27;;;17.70;58.80;;;;;;5029016;28;20239;-95
2022/05/08 08:39:42;;;;;;;15.70;5.53;;;17.80;59.10;;;;;;5028934;28;20208;-95
2022/05/08 08:42:20;;;;;;;11.43;3.77;;;17.80;57.90;;;;;;5031141;28;20216;-96
2022/05/08 08:47:50;;;;;;;18.60;4.60;;;18.00;56.70;;;;;;5033711;28;20211;-95
2022/05/08 08:50:23;;;;;;;10.33;3.93;;;18.10;57.50;;;;;;5033349;28;20656;-96
2022/05/08 08:52:51;;;;;;;14.83;4.80;;;18.20;55.70;;;;;;5032105;28;20232;-93
2022/05/08 08:55:22;;;;;;;14.97;4.33;;;18.40;55.70;;;;;;5031760;28;20208;-93
2022/05/08 08:57:50;;;;;;;16.33;5.03;;;18.50;55.30;;;;;;5033087;28;20228;-94
2022/05/08 09:03:05;;;;;;;9.33;3.90;;;18.80;54.90;;;;;;5013849;28;20662;-95
2022/05/08 09:05:43;;;;;;;12.80;4.17;;;19.00;55.10;;;;;;5034199;28;20299;-94
2022/05/08 09:08:36;;;;;;;8.00;3.30;;;19.20;55.80;;;;;;5040612;28;20238;-93
2022/05/08 09:11:04;;;;;;;10.40;3.83;;;19.40;55.70;;;;;;5038608;28;20304;-93
2022/05/08 09:13:34;;;;;;;13.97;4.17;;;19.60;53.60;;;;;;5039283;28;20209;-91
2022/05/08 09:16:05;;;;;;;12.33;4.13;;;19.80;51.40;;;;;;5037454;28;20208;-95
2022/05/08 09:18:44;;;;;;;10.73;3.47;;;20.00;53.70;;;;;;5040536;28;20244;-95
2022/05/08 09:24:15;;;;;;;12.60;4.50;;;20.30;52.90;;;;;;5033579;28;20278;-96
2022/05/08 09:26:45;;;;;;;12.00;3.97;;;20.50;51.00;;;;;;5019077;28;20218;-94
2022/05/08 09:29:22;;;;;;;10.23;4.07;;;20.60;50.50;;;;;;5027679;28;20205;-96
2022/05/08 09:32:13;;;;;;;7.50;2.83;;;20.80;49.10;;;;;;5032744;28;20201;-96
2022/05/08 09:35:08;;;;;;;14.00;4.60;;;20.90;49.30;;;;;;5036167;28;20657;-96
2022/05/08 09:37:52;;;;;;;15.33;4.77;;;21.00;47.40;;;;;;5034062;28;20247;-95
2022/05/08 09:40:38;;;;;;;12.90;4.50;;;21.10;49.80;;;;;;5037635;28;20205;-96
2022/05/08 09:43:26;;;;;;;7.27;2.70;;;21.30;48.10;;;;;;5037523;28;20197;-95
2022/05/08 09:45:59;;;;;;;9.77;2.53;;;21.40;48.80;;;;;;5036666;28;20637;-95
2022/05/08 09:48:55;;;;;;;11.57;4.00;;;21.50;47.80;;;;;;5037983;28;20287;-96
2022/05/08 09:51:26;;;;;;;12.23;3.37;;;21.60;48.40;;;;;;5027315;28;20216;-94
2022/05/08 09:54:11;;;;;;;7.70;2.83;;;21.80;48.90;;;;;;5038020;28;20212;-95
2022/05/08 09:56:38;;;;;;;12.33;4.87;;;21.90;49.00;;;;;;5033205;28;20205;-96
2022/05/08 09:59:08;;;;;;;8.07;3.17;;;22.00;48.70;;;;;;5036981;28;20227;-94
2022/05/08 10:05:09;;;;;;;7.87;2.57;;;22.30;47.00;;;;;;5016613;28;20227;-95
2022/05/08 10:08:02;;;;;;;6.43;2.70;;;22.50;49.70;;;;;;5038046;28;20595;-96
2022/05/08 10:14:07;;;;;;;10.03;3.40;;;22.70;48.90;;;;;;4978150;28;20198;-95
2022/05/08 10:19:56;;;;;;;9.27;3.47;;;23.10;48.10;;;;;;5029906;28;20239;-96
2022/05/08 10:25:24;;;;;;;11.50;4.27;;;23.30;46.10;;;;;;5062082;22;20244;-96
2022/05/08 10:28:09;;;;;;;11.33;3.63;;;23.40;47.20;;;;;;5053845;28;20211;-96
2022/05/08 10:30:40;;;;;;;9.73;3.53;;;23.50;46.50;;;;;;5052169;28;20560;-93
2022/05/08 10:33:08;;;;;;;9.03;3.70;;;23.60;47.10;;;;;;5052717;28;20664;-95
2022/05/08 10:35:38;;;;;;;11.33;4.40;;;23.70;46.60;;;;;;5053272;28;20212;-93
2022/05/08 10:38:21;;;;;;;9.63;3.47;;;23.70;46.50;;;;;;5053268;28;20224;-95
2022/05/08 10:40:53;;;;;;;10.30;4.00;;;23.80;45.20;;;;;;5057369;28;20208;-95
2022/05/08 10:43:32;;;;;;;10.70;3.37;;;23.90;45.20;;;;;;5057920;28;20204;-95
2022/05/08 10:49:16;;;;;;;10.37;3.67;;;24.00;44.70;;;;;;5509148;22;20241;-95
2022/05/08 10:51:44;;;;;;;11.07;4.90;;;24.10;46.20;;;;;;5034420;28;20216;-94
2022/05/08 10:56:54;;;;;;;12.13;4.33;;;24.10;45.90;;;;;;5030054;28;20204;-94
2022/05/08 10:59:23;;;;;;;11.37;3.27;;;24.30;45.10;;;;;;5042735;28;20267;-96
2022/05/08 11:01:53;;;;;;;6.23;2.83;;;24.30;44.60;;;;;;5043708;28;20200;-95
2022/05/08 11:04:22;;;;;;;13.57;3.60;;;24.40;44.70;;;;;;5040049;28;21371;-95
2022/05/08 11:07:09;;;;;;;9.17;3.30;;;24.40;44.90;;;;;;5042791;28;20251;-93
2022/05/08 11:09:39;;;;;;;8.73;3.27;;;24.50;43.40;;;;;;5046726;28;20725;-95
2022/05/08 11:12:35;;;;;;;5.70;2.43;;;24.60;44.60;;;;;;5046022;28;20208;-96
2022/05/08 11:15:20;;;;;;;9.53;2.97;;;24.60;44.10;;;;;;5044164;28;20567;-96
2022/05/08 11:17:47;;;;;;;15.40;5.17;;;24.60;43.30;;;;;;5039077;28;20326;-94
2022/05/08 11:20:48;;;;;;;5.33;2.93;;;24.70;43.50;;;;;;5044630;28;20196;-96
2022/05/08 11:30:37;;;;;;;;;;;;;;;;;;;;;
2022/05/08 11:36:53;;;;;;;15.47;5.90;;;24.60;42.30;;;;;;4984257;28;20229;-96
2022/05/08 11:43:24;;;;;;;11.23;4.07;;;24.60;43.40;;;;;;4964937;28;20696;-96
2022/05/08 11:56:42;;;;;;;9.70;3.23;;;24.90;42.80;;;;;;4928408;29;20219;-95
2022/05/08 11:59:46;;;;;;;16.07;4.90;;;25.00;44.30;;;;;;4926728;29;20259;-96
2022/05/08 12:02:31;;;;;;;12.03;4.90;;;25.10;46.10;;;;;;4931777;29;20204;-96
2022/05/08 12:05:19;;;;;;;12.80;4.47;;;25.20;46.10;;;;;;4925628;29;20856;-96
2022/05/08 12:08:20;;;;;;;9.30;4.30;;;25.30;46.30;;;;;;4981584;28;20205;-96
2022/05/08 12:17:12;;;;;;;11.87;4.47;;;25.60;45.90;;;;;;5097071;22;20236;-96
2022/05/08 12:20:00;;;;;;;14.90;5.13;;;25.60;44.80;;;;;;5049220;28;20212;-96
2022/05/08 12:22:36;;;;;;;11.70;4.17;;;25.60;45.50;;;;;;5054267;28;20225;-96
2022/05/08 12:25:48;;;;;;;;;;;;;;;;;;;;;
2022/05/08 12:28:46;;;;;;;12.80;4.40;;;25.60;45.30;;;;;;4973675;28;20218;-96
2022/05/08 12:37:34;;;;;;;13.80;4.83;;;25.60;45.50;;;;;;5056017;28;20234;-96
2022/05/08 12:40:06;;;;;;;10.03;3.37;;;25.60;45.20;;;;;;5069872;28;20183;-94
2022/05/08 12:43:08;;;;;;;12.17;4.17;;;25.60;46.20;;;;;;5076632;28;20270;-95
2022/05/08 12:45:41;;;;;;;32.33;13.10;;;25.60;45.80;;;;;;5091656;22;20231;-94
2022/05/08 12:54:04;;;;;;;12.83;3.87;;;25.70;45.60;;;;;;5054408;28;20204;-96
2022/05/08 12:59:52;;;;;;;10.93;4.10;;;25.80;45.30;;;;;;5055520;28;20207;-95
2022/05/08 13:02:32;;;;;;;12.00;4.03;;;25.80;45.60;;;;;;5051617;28;20211;-96
2022/05/08 13:09:22;;;;;;;;;;;;;;;;;;;;;
2022/05/08 13:15:22;;;;;;;14.60;5.10;;;25.60;45.00;;;;;;5057642;28;20193;-95
2022/05/08 13:18:08;;;;;;;12.73;5.20;;;25.60;45.80;;;;;;5058023;28;20225;-95
2022/05/08 13:20:35;;;;;;;10.63;4.87;;;25.60;45.00;;;;;;5059003;28;20268;-95
2022/05/08 13:23:34;;;;;;;11.20;3.53;;;25.50;45.20;;;;;;5059357;28;20205;-95
2022/05/08 13:29:19;;;;;;;11.20;3.80;;;25.50;44.80;;;;;;5045286;28;20200;-96
2022/05/08 13:35:29;;;;;;;14.57;5.17;;;25.50;45.10;;;;;;5074488;22;20295;-96
2022/05/08 13:38:42;;;;;;;8.97;3.67;;;25.50;44.90;;;;;;5045491;28;20220;-95
2022/05/08 13:41:18;;;;;;;8.63;3.63;;;25.50;45.20;;;;;;5082730;23;20319;-96
2022/05/08 13:47:53;;;;;;;;;;;;;;;;;;;;;
2022/05/08 13:58:45;;;;;;;11.37;3.47;;;25.50;44.60;;;;;;5041993;28;20221;-96
2022/05/08 14:01:29;;;;;;;;;;;;;;;;;;;;;
2022/05/08 14:04:02;;;;;;;6.57;2.23;;;25.40;44.70;;;;;;5055475;28;20193;-94
2022/05/08 14:06:30;;;;;;;10.50;3.23;;;25.40;44.80;;;;;;5051914;28;20284;-95
2022/05/08 14:09:11;;;;;;;11.27;3.80;;;25.40;44.70;;;;;;5052882;28;20205;-96
2022/05/08 14:14:35;;;;;;;7.77;2.93;;;25.40;44.90;;;;;;5180250;22;20263;-96
2022/05/08 14:17:15;;;;;;;;;;;;;;;;;;;;;
2022/05/08 14:20:10;;;;;;;9.80;3.77;;;25.30;44.60;;;;;;5053372;28;20216;-96
2022/05/08 14:38:51;;;;;;;8.87;3.17;;;25.20;44.40;;;;;;5017870;28;20228;-96
2022/05/08 14:41:35;;;;;;;11.23;3.27;;;25.20;44.50;;;;;;5010382;28;20219;-96
2022/05/08 14:44:06;;;;;;;8.17;2.73;;;25.10;44.10;;;;;;5025631;28;20202;-95
2022/05/08 14:50:12;;;;;;;17.07;4.97;;;25.10;44.50;;;;;;5006902;28;20215;-96
2022/05/08 14:52:55;;;;;;;9.47;2.70;;;25.00;44.50;;;;;;5025709;28;20205;-96
2022/05/08 15:01:12;;;;;;;7.20;3.17;;;24.90;44.10;;;;;;5029470;23;20248;-94
2022/05/08 15:03:53;;;;;;;10.00;3.87;;;24.80;44.10;;;;;;5021140;28;20237;-95
2022/05/08 15:06:33;;;;;;;6.40;2.70;;;24.70;44.30;;;;;;5019628;28;20578;-96
2022/05/08 15:09:56;;;;;;;11.37;4.10;;;24.60;44.30;;;;;;5032111;28;20208;-95
2022/05/08 15:12:33;;;;;;;11.47;4.33;;;24.50;44.20;;;;;;5002577;28;20201;-93
2022/05/08 15:15:29;;;;;;;12.07;3.63;;;24.40;44.30;;;;;;5032640;28;20193;-95
2022/05/08 15:24:41;;;;;;;13.50;4.10;;;24.10;44.50;;;;;;5014312;28;20194;-95
2022/05/08 15:27:23;;;;;;;9.47;2.93;;;24.10;44.70;;;;;;5019073;28;20232;-96
2022/05/08 15:33:14;;;;;;;10.33;3.63;;;23.90;44.80;;;;;;5020457;28;20228;-96
2022/05/08 15:36:01;;;;;;;7.90;3.53;;;23.90;44.80;;;;;;5010383;28;20197;-95
2022/05/08 15:38:51;;;;;;;12.10;3.30;;;23.80;44.70;;;;;;5013005;28;20221;-96
2022/05/08 15:41:30;;;;;;;8.57;3.13;;;23.80;44.30;;;;;;5012507;28;20213;-93
2022/05/08 15:44:03;;;;;;;15.53;4.90;;;23.80;44.90;;;;;;5006046;28;20236;-96
2022/05/08 15:46:41;;;;;;;12.73;4.53;;;23.70;44.80;;;;;;5007580;28;20664;-96
2022/05/08 15:49:48;;;;;;;7.63;3.27;;;23.70;44.80;;;;;;5008279;28;20258;-96
2022/05/08 15:52:21;;;;;;;18.83;6.13;;;23.70;44.60;;;;;;5014723;28;20193;-95
2022/05/08 15:55:28;;;;;;;;;;;;;;;;;;;;;
2022/05/08 16:01:40;;;;;;;6.97;3.13;;;23.60;44.60;;;;;;5179817;22;20240;-96
2022/05/08 16:04:49;;;;;;;;;;;;;;;;;;;;;
2022/05/08 16:07:25;;;;;;;9.43;4.23;;;23.50;44.90;;;;;;5037229;28;20215;-94
2022/05/08 16:10:20;;;;;;;13.93;4.57;;;23.40;44.80;;;;;;5057180;28;20207;-95
2022/05/08 16:23:58;;;;;;;12.77;4.33;;;23.10;44.80;;;;;;5036766;28;20202;-95
2022/05/08 16:26:35;;;;;;;10.43;4.27;;;23.10;45.20;;;;;;5039178;28;20224;-94
2022/05/08 16:31:58;;;;;;;10.73;3.73;;;22.90;45.30;;;;;;5030298;28;20237;-95
2022/05/08 16:38:47;;;;;;;8.03;2.87;;;22.90;45.10;;;;;;5037290;28;20199;-95